createdAt,value
2023-02-16T00:01:28.391Z,29.67
2023-02-16T00:03:57.438Z,31.60
2023-02-16T00:06:26.390Z,29.80
2023-02-16T00:08:56.024Z,29.00
2023-02-16T00:11:46.762Z,30.70
2023-02-16T00:14:15.570Z,30.20
2023-02-16T00:16:44.997Z,31.57
2023-02-16T00:19:20.045Z,31.80
2023-02-16T00:21:48.700Z,28.40
2023-02-16T00:24:16.958Z,29.83
2023-02-16T00:26:45.780Z,33.87
2023-02-16T00:29:19.754Z,30.73
2023-02-16T00:31:49.577Z,29.50
2023-02-16T00:34:28.027Z,32.23
2023-02-16T00:36:57.813Z,32.00
2023-02-16T00:39:26.368Z,33.67
2023-02-16T00:41:55.477Z,30.57
2023-02-16T00:44:32.003Z,29.93
2023-02-16T00:47:05.563Z,33.17
2023-02-16T00:49:33.534Z,31.47
2023-02-16T00:52:01.393Z,31.63
2023-02-16T00:54:30.985Z,32.40
2023-02-16T00:57:00.428Z,28.43
2023-02-16T00:59:28.500Z,29.97
2023-02-16T01:01:57.641Z,33.97
2023-02-16T01:04:27.186Z,31.40
2023-02-16T01:07:12.429Z,32.17
2023-02-16T01:09:57.906Z,33.17
2023-02-16T01:12:25.783Z,32.17
2023-02-16T01:14:55.861Z,32.63
2023-02-16T01:17:25.510Z,29.63
2023-02-16T01:19:57.867Z,30.13
2023-02-16T01:22:25.911Z,33.83
2023-02-16T01:24:54.606Z,33.10
2023-02-16T01:27:22.566Z,30.77
2023-02-16T01:29:50.546Z,30.50
2023-02-16T01:32:18.570Z,35.03
2023-02-16T01:34:46.403Z,32.67
2023-02-16T01:37:18.640Z,31.43
2023-02-16T01:39:46.956Z,33.03
2023-02-16T01:42:36.258Z,33.80
2023-02-16T01:45:06.477Z,28.83
2023-02-16T01:47:39.228Z,30.17
2023-02-16T01:50:18.738Z,30.30
2023-02-16T01:52:54.644Z,31.27
2023-02-16T01:55:26.875Z,31.83
2023-02-16T01:57:59.694Z,31.33
2023-02-16T02:00:30.959Z,33.33
2023-02-16T02:03:16.499Z,31.17
2023-02-16T02:05:44.689Z,35.30
2023-02-16T02:08:26.288Z,33.17
2023-02-16T02:11:11.027Z,33.20
2023-02-16T02:13:42.947Z,32.30
2023-02-16T02:16:12.327Z,32.40
2023-02-16T02:18:40.418Z,30.57
2023-02-16T02:21:45.264Z,34.17
2023-02-16T02:24:46.289Z,33.13
2023-02-16T02:27:21.814Z,32.33
2023-02-16T02:30:06.196Z,34.20
2023-02-16T02:32:49.883Z,31.67
2023-02-16T02:35:30.652Z,33.87
2023-02-16T02:38:05.008Z,33.53
2023-02-16T02:40:48.204Z,36.50
2023-02-16T02:43:23.982Z,34.73
2023-02-16T02:48:39.184Z,32.40
2023-02-16T02:51:30.824Z,37.53
2023-02-16T02:54:21.583Z,33.40
2023-02-16T02:57:14.895Z,30.10
2023-02-16T03:00:08.789Z,31.17
2023-02-16T03:02:39.151Z,35.93
2023-02-16T03:05:11.290Z,30.20
2023-02-16T03:07:49.315Z,33.53
2023-02-16T03:10:39.589Z,33.93
2023-02-16T03:13:13.284Z,38.40
2023-02-16T03:15:45.828Z,34.53
2023-02-16T03:18:33.661Z,33.43
2023-02-16T03:21:20.865Z,31.47
2023-02-16T03:24:09.859Z,32.30
2023-02-16T03:26:56.200Z,33.27
2023-02-16T03:29:26.624Z,35.17
2023-02-16T03:31:57.665Z,32.17
2023-02-16T03:34:27.165Z,33.27
2023-02-16T03:37:00.123Z,32.03
2023-02-16T03:39:30.075Z,34.03
2023-02-16T03:41:59.035Z,35.30
2023-02-16T03:44:27.314Z,32.57
2023-02-16T03:46:57.353Z,33.07
2023-02-16T03:49:25.283Z,33.33
2023-02-16T03:51:53.290Z,31.87
2023-02-16T03:54:21.422Z,33.50
2023-02-16T03:56:49.492Z,38.97
2023-02-16T03:59:17.496Z,34.30
2023-02-16T04:01:45.508Z,33.40
2023-02-16T04:04:15.600Z,34.67
2023-02-16T04:06:43.618Z,33.87
2023-02-16T04:09:12.154Z,31.00
2023-02-16T04:11:57.443Z,33.67
2023-02-16T04:14:25.913Z,37.07
2023-02-16T04:16:56.096Z,32.47
2023-02-16T04:19:25.968Z,32.47
2023-02-16T04:21:54.019Z,33.27
2023-02-16T04:24:22.048Z,36.67
2023-02-16T04:26:50.190Z,35.17
2023-02-16T04:29:18.140Z,33.40
2023-02-16T04:31:46.226Z,33.97
2023-02-16T04:34:14.831Z,32.97
2023-02-16T04:36:44.295Z,35.40
2023-02-16T04:39:12.578Z,32.13
2023-02-16T04:41:40.590Z,33.13
2023-02-16T04:44:08.549Z,33.73
2023-02-16T04:46:36.665Z,33.80
2023-02-16T04:49:04.923Z,34.53
2023-02-16T04:51:32.905Z,37.50
2023-02-16T04:54:02.513Z,34.53
2023-02-16T04:56:30.870Z,35.07
2023-02-16T04:58:58.820Z,32.63
2023-02-16T05:01:28.933Z,32.73
2023-02-16T05:03:57.688Z,36.70
2023-02-16T05:06:25.676Z,35.37
2023-02-16T05:08:53.548Z,31.63
2023-02-16T05:11:40.640Z,32.50
2023-02-16T05:14:25.925Z,33.70
2023-02-16T05:16:54.352Z,35.80
2023-02-16T05:19:22.631Z,31.90
2023-02-16T05:21:50.704Z,35.53
2023-02-16T05:24:18.711Z,35.30
2023-02-16T05:26:50.325Z,34.50
2023-02-16T05:29:18.517Z,40.90
2023-02-16T05:31:46.742Z,36.70
2023-02-16T05:34:15.242Z,36.73
2023-02-16T05:36:43.325Z,36.90
2023-02-16T05:39:11.835Z,40.03
2023-02-16T05:41:39.861Z,38.57
2023-02-16T05:44:10.279Z,39.20
2023-02-16T05:46:40.884Z,36.77
2023-02-16T05:49:09.758Z,35.77
2023-02-16T05:51:38.796Z,34.77
2023-02-16T05:54:07.563Z,39.00
2023-02-16T05:56:35.662Z,35.50
2023-02-16T05:59:03.746Z,35.50
2023-02-16T06:01:33.206Z,37.43
2023-02-16T06:04:01.675Z,36.27
2023-02-16T06:06:30.056Z,36.80
2023-02-16T06:08:57.984Z,33.83
2023-02-16T06:11:37.895Z,35.37
2023-02-16T06:14:08.747Z,37.53
2023-02-16T06:16:39.774Z,36.17
2023-02-16T06:19:08.372Z,38.40
2023-02-16T06:21:37.304Z,35.70
2023-02-16T06:24:06.071Z,33.50
2023-02-16T06:26:34.046Z,35.10
2023-02-16T06:29:02.255Z,36.83
2023-02-16T06:31:30.414Z,35.80
2023-02-16T06:34:01.250Z,35.47
2023-02-16T06:36:29.317Z,38.13
2023-02-16T06:38:57.216Z,34.50
2023-02-16T06:41:37.829Z,37.93
2023-02-16T06:44:08.332Z,36.53
2023-02-16T06:46:36.603Z,34.33
2023-02-16T06:49:06.045Z,36.60
2023-02-16T06:51:34.522Z,38.00
2023-02-16T06:54:02.546Z,34.97
2023-02-16T06:56:30.706Z,32.90
2023-02-16T06:58:58.692Z,42.10
2023-02-16T07:01:26.837Z,43.43
2023-02-16T07:03:56.638Z,40.33
2023-02-16T07:06:28.404Z,37.80
2023-02-16T07:08:57.183Z,37.20
2023-02-16T07:11:25.132Z,37.13
2023-02-16T07:13:53.119Z,34.33
2023-02-16T07:16:21.289Z,42.90
2023-02-16T07:18:49.349Z,36.83
2023-02-16T07:21:17.600Z,34.07
2023-02-16T07:23:47.112Z,37.73
2023-02-16T07:26:15.124Z,35.17
2023-02-16T07:28:43.405Z,35.77
2023-02-16T07:31:12.940Z,39.60
2023-02-16T07:33:41.396Z,33.23
2023-02-16T07:36:11.525Z,34.20
2023-02-16T07:38:42.045Z,36.33
2023-02-16T07:41:12.303Z,36.10
2023-02-16T07:43:42.832Z,34.07
2023-02-16T07:46:11.571Z,32.67
2023-02-16T07:48:39.897Z,35.57
2023-02-16T07:51:08.482Z,35.50
2023-02-16T07:53:36.566Z,35.90
2023-02-16T07:56:05.624Z,34.80
2023-02-16T07:58:36.741Z,42.10
2023-02-16T08:01:10.165Z,34.90
2023-02-16T08:03:38.363Z,34.27
2023-02-16T08:06:07.138Z,40.43
2023-02-16T08:08:35.717Z,37.07
2023-02-16T08:11:10.215Z,35.57
2023-02-16T08:13:40.031Z,34.73
2023-02-16T08:16:12.082Z,36.23
2023-02-16T08:18:41.776Z,32.43
2023-02-16T08:21:14.404Z,34.60
2023-02-16T08:23:47.747Z,34.37
2023-02-16T08:26:18.485Z,34.77
2023-02-16T08:28:50.354Z,39.00
2023-02-16T08:31:20.828Z,36.40
2023-02-16T08:33:49.136Z,39.90
2023-02-16T08:36:21.809Z,36.03
2023-02-16T08:38:51.096Z,35.63
2023-02-16T08:41:19.884Z,36.73
2023-02-16T08:43:50.226Z,33.67
2023-02-16T08:46:18.992Z,38.07
2023-02-16T08:48:47.585Z,38.37
2023-02-16T08:51:15.937Z,34.23
2023-02-16T08:53:44.225Z,31.73
2023-02-16T08:56:12.447Z,35.07
2023-02-16T08:58:41.051Z,34.40
2023-02-16T09:01:12.008Z,32.70
2023-02-16T09:03:42.986Z,32.47
2023-02-16T09:06:12.548Z,31.23
2023-02-16T09:08:41.208Z,35.27
2023-02-16T09:11:12.306Z,38.03
2023-02-16T09:13:41.429Z,31.93
2023-02-16T09:16:12.896Z,34.40
2023-02-16T09:18:41.991Z,30.23
2023-02-16T09:21:12.452Z,31.87
2023-02-16T09:23:41.965Z,33.27
2023-02-16T09:26:12.223Z,31.30
2023-02-16T09:28:41.537Z,37.93
2023-02-16T09:31:16.073Z,37.90
2023-02-16T09:33:45.545Z,34.67
2023-02-16T09:36:14.296Z,30.93
2023-02-16T09:38:43.214Z,31.00
2023-02-16T09:41:24.299Z,31.77
2023-02-16T09:43:58.990Z,33.20
2023-02-16T09:46:31.661Z,36.03
2023-02-16T09:49:02.663Z,37.93
2023-02-16T09:51:35.773Z,34.33
2023-02-16T09:54:16.231Z,37.13
2023-02-16T09:56:50.392Z,34.27
2023-02-16T09:59:30.360Z,34.13
2023-02-16T10:02:14.484Z,32.43
2023-02-16T10:04:51.625Z,35.27
2023-02-16T10:07:31.768Z,30.13
2023-02-16T10:10:02.292Z,33.63
2023-02-16T10:12:34.641Z,33.87
2023-02-16T10:15:08.607Z,32.50
2023-02-16T10:17:46.937Z,36.03
2023-02-16T10:20:19.850Z,35.70
2023-02-16T10:22:52.646Z,36.07
2023-02-16T10:25:26.338Z,35.97
2023-02-16T10:28:02.417Z,38.00
2023-02-16T10:30:33.281Z,34.97
2023-02-16T10:33:14.336Z,32.03
2023-02-16T10:35:47.222Z,32.93
2023-02-16T10:38:20.768Z,35.93
2023-02-16T10:40:56.411Z,36.83
2023-02-16T10:43:32.408Z,32.57
2023-02-16T10:46:03.635Z,31.13
2023-02-16T10:48:34.236Z,32.40
2023-02-16T10:51:05.446Z,36.30
2023-02-16T10:53:42.094Z,35.07
2023-02-16T10:56:38.451Z,38.47
2023-02-16T10:59:09.260Z,37.63
2023-02-16T11:01:40.020Z,34.73
2023-02-16T11:04:10.341Z,38.13
2023-02-16T11:06:38.642Z,37.13
2023-02-16T11:09:07.959Z,30.37
2023-02-16T11:11:39.334Z,33.77
2023-02-16T11:14:19.755Z,33.73
2023-02-16T11:16:48.391Z,32.63
2023-02-16T11:19:25.865Z,33.00
2023-02-16T11:21:55.785Z,36.43
2023-02-16T11:24:29.246Z,32.60
2023-02-16T11:27:03.292Z,33.33
2023-02-16T11:29:31.769Z,32.73
2023-02-16T11:32:01.069Z,36.77
2023-02-16T11:34:35.103Z,33.83
2023-02-16T11:37:14.062Z,33.77
2023-02-16T11:39:51.049Z,31.73
2023-02-16T11:42:30.481Z,34.90
2023-02-16T11:45:01.472Z,35.00
2023-02-16T11:47:32.645Z,30.27
2023-02-16T11:50:20.383Z,36.43
2023-02-16T11:52:49.988Z,37.43
2023-02-16T11:55:26.809Z,34.67
2023-02-16T11:57:57.020Z,37.60
2023-02-16T12:00:26.624Z,37.10
2023-02-16T12:03:14.320Z,41.23
2023-02-16T12:05:59.084Z,33.47
2023-02-16T12:08:45.327Z,35.23
2023-02-16T12:11:28.236Z,34.13
2023-02-16T12:14:16.805Z,36.73
2023-02-16T12:16:51.881Z,36.03
2023-02-16T12:19:29.692Z,37.43
2023-02-16T12:22:10.492Z,38.63
2023-02-16T12:24:50.351Z,34.97
2023-02-16T12:27:23.260Z,32.73
2023-02-16T12:30:00.054Z,36.10
2023-02-16T12:32:42.323Z,33.87
2023-02-16T12:35:33.011Z,36.60
2023-02-16T12:38:08.702Z,37.93
2023-02-16T12:40:47.977Z,36.43
2023-02-16T12:43:33.689Z,34.53
2023-02-16T12:46:07.471Z,40.97
2023-02-16T12:48:43.551Z,37.57
2023-02-16T12:51:17.259Z,39.67
2023-02-16T12:53:57.112Z,37.10
2023-02-16T12:56:29.686Z,38.77
2023-02-16T12:59:18.141Z,34.97
2023-02-16T13:01:48.999Z,36.07
2023-02-16T13:04:22.892Z,38.10
2023-02-16T13:06:59.045Z,35.97
2023-02-16T13:09:37.444Z,35.47
2023-02-16T13:12:13.219Z,36.90
2023-02-16T13:14:45.132Z,39.33
2023-02-16T13:17:17.199Z,40.20
2023-02-16T13:19:47.564Z,40.27
2023-02-16T13:22:38.019Z,40.13
2023-02-16T13:25:43.992Z,39.60
2023-02-16T13:28:31.566Z,38.83
2023-02-16T13:31:18.044Z,35.13
2023-02-16T13:34:04.280Z,39.30
2023-02-16T13:36:50.603Z,33.93
2023-02-16T13:39:44.672Z,40.23
2023-02-16T13:42:44.825Z,38.27
2023-02-16T13:45:17.782Z,40.37
2023-02-16T13:47:46.376Z,36.67
2023-02-16T13:50:32.224Z,40.83
2023-02-16T13:53:11.418Z,37.93
2023-02-16T13:55:41.071Z,36.67
2023-02-16T13:58:29.072Z,35.80
2023-02-16T14:00:57.342Z,37.83
2023-02-16T14:03:46.327Z,35.13
2023-02-16T14:06:32.331Z,38.37
2023-02-16T14:09:37.195Z,34.53
2023-02-16T14:12:15.545Z,35.37
2023-02-16T14:14:56.839Z,37.20
2023-02-16T14:17:28.541Z,35.13
2023-02-16T14:19:58.445Z,34.27
2023-02-16T14:22:34.384Z,37.77
2023-02-16T14:25:06.698Z,34.97
2023-02-16T14:27:46.578Z,38.63
2023-02-16T14:30:23.239Z,39.77
2023-02-16T14:32:55.284Z,35.40
2023-02-16T14:35:27.982Z,43.77
2023-02-16T14:37:59.105Z,36.70
2023-02-16T14:40:50.923Z,41.13
2023-02-16T14:43:28.191Z,37.20
2023-02-16T14:46:34.674Z,39.53
2023-02-16T14:49:44.187Z,40.17
2023-02-16T14:52:42.259Z,38.33
2023-02-16T14:55:40.709Z,41.30
2023-02-16T14:58:23.462Z,37.93
2023-02-16T15:00:55.773Z,47.87
2023-02-16T15:03:26.577Z,40.77
2023-02-16T15:05:58.548Z,39.63
2023-02-16T15:08:34.955Z,40.47
2023-02-16T15:11:13.859Z,38.97
2023-02-16T15:13:43.468Z,39.83
2023-02-16T15:16:17.207Z,37.30
2023-02-16T15:18:49.539Z,38.67
2023-02-16T15:21:20.675Z,42.37
2023-02-16T15:23:51.849Z,38.17
2023-02-16T15:26:23.156Z,41.47
2023-02-16T15:28:56.027Z,39.17
2023-02-16T15:31:31.044Z,40.37
2023-02-16T15:34:05.556Z,35.83
2023-02-16T15:36:36.451Z,40.43
2023-02-16T15:39:07.423Z,40.00
2023-02-16T15:41:38.335Z,37.87
2023-02-16T15:44:08.547Z,34.80
2023-02-16T15:46:38.678Z,35.50
2023-02-16T15:49:21.444Z,33.93
2023-02-16T15:51:50.433Z,34.73
2023-02-16T15:54:27.012Z,39.27
2023-02-16T15:56:56.801Z,38.60
2023-02-16T15:59:35.502Z,34.43
2023-02-16T16:02:12.177Z,39.73
2023-02-16T16:04:44.519Z,36.53
2023-02-16T16:07:16.208Z,35.50
2023-02-16T16:09:45.483Z,43.00
2023-02-16T16:12:17.355Z,39.63
2023-02-16T16:14:51.670Z,32.40
2023-02-16T16:17:22.641Z,38.63
2023-02-16T16:19:53.584Z,36.07
2023-02-16T16:22:36.814Z,34.73
2023-02-16T16:25:44.888Z,34.43
2023-02-16T16:28:15.964Z,33.57
2023-02-16T16:30:45.405Z,33.30
2023-02-16T16:33:15.055Z,32.90
2023-02-16T16:35:45.565Z,36.50
2023-02-16T16:38:26.465Z,30.80
2023-02-16T16:40:59.057Z,31.27
2023-02-16T16:43:30.827Z,31.67
2023-02-16T16:46:14.069Z,28.77
2023-02-16T16:48:45.244Z,30.33
2023-02-16T16:51:16.467Z,28.63
2023-02-16T16:53:53.049Z,26.50
2023-02-16T16:56:23.498Z,28.67
2023-02-16T16:58:52.545Z,24.17
2023-02-16T17:01:21.937Z,25.27
2023-02-16T17:03:50.063Z,24.17
2023-02-16T17:06:18.890Z,25.30
2023-02-16T17:08:47.323Z,25.53
2023-02-16T17:11:24.866Z,25.37
2023-02-16T17:13:54.819Z,23.33
2023-02-16T17:16:25.947Z,25.93
2023-02-16T17:18:53.967Z,26.13
2023-02-16T17:21:22.652Z,23.00
2023-02-16T17:23:53.402Z,25.27
2023-02-16T17:26:23.934Z,23.67
2023-02-16T17:28:52.133Z,26.17
2023-02-16T17:31:20.193Z,23.73
2023-02-16T17:33:48.807Z,21.73
2023-02-16T17:36:17.762Z,22.07
2023-02-16T17:38:46.624Z,22.07
2023-02-16T17:41:21.505Z,21.10
2023-02-16T17:43:51.261Z,17.50
2023-02-16T17:46:20.856Z,17.57
2023-02-16T17:48:52.040Z,17.57
2023-02-16T17:51:22.206Z,18.43
2023-02-16T17:53:50.198Z,18.47
2023-02-16T17:56:21.442Z,18.20
2023-02-16T17:58:51.264Z,19.47
2023-02-16T18:01:20.173Z,20.53
2023-02-16T18:03:48.650Z,21.77
2023-02-16T18:06:17.764Z,18.07
2023-02-16T18:08:47.210Z,15.80
2023-02-16T18:11:15.597Z,16.10
2023-02-16T18:13:43.907Z,17.93
2023-02-16T18:16:17.861Z,16.30
2023-02-16T18:18:46.563Z,16.73
2023-02-16T18:21:14.975Z,24.27
2023-02-16T18:23:43.077Z,16.30
2023-02-16T18:26:15.262Z,17.33
2023-02-16T18:28:43.417Z,17.20
2023-02-16T18:31:12.018Z,20.27
2023-02-16T18:33:41.445Z,19.50
2023-02-16T18:36:10.128Z,19.17
2023-02-16T18:38:38.134Z,20.73
2023-02-16T18:41:06.151Z,18.47
2023-02-16T18:43:35.833Z,19.30
2023-02-16T18:46:07.001Z,21.63
2023-02-16T18:48:35.416Z,17.53
2023-02-16T18:51:06.679Z,32.90
2023-02-16T18:53:37.735Z,17.33
2023-02-16T18:56:06.729Z,18.63
2023-02-16T18:58:34.909Z,23.20
2023-02-16T19:01:11.843Z,22.60
2023-02-16T19:03:40.762Z,19.27
2023-02-16T19:06:10.438Z,19.67
2023-02-16T19:08:38.470Z,22.10
2023-02-16T19:11:06.494Z,23.93
2023-02-16T19:13:34.548Z,18.00
2023-02-16T19:16:02.746Z,20.33
2023-02-16T19:18:32.127Z,21.90
2023-02-16T19:21:00.105Z,21.13
2023-02-16T19:23:29.612Z,18.90
2023-02-16T19:25:57.618Z,19.47
2023-02-16T19:28:26.662Z,20.00
2023-02-16T19:30:54.637Z,19.80
2023-02-16T19:33:22.694Z,19.60
2023-02-16T19:35:50.645Z,17.27
2023-02-16T19:38:18.577Z,19.50
2023-02-16T19:40:48.077Z,16.67
2023-02-16T19:43:16.034Z,19.30
2023-02-16T19:45:44.073Z,21.23
2023-02-16T19:48:12.136Z,17.07
2023-02-16T19:50:40.225Z,18.00
2023-02-16T19:53:08.340Z,19.63
2023-02-16T19:55:36.351Z,19.80
2023-02-16T19:58:05.716Z,21.77
2023-02-16T20:00:33.827Z,21.53
2023-02-16T20:03:01.859Z,19.87
2023-02-16T20:05:29.872Z,19.33
2023-02-16T20:07:57.935Z,17.07
2023-02-16T20:10:26.015Z,18.03
2023-02-16T20:12:54.111Z,18.53
2023-02-16T20:15:23.962Z,18.57
2023-02-16T20:17:53.905Z,19.73
2023-02-16T20:20:22.925Z,18.87
2023-02-16T20:22:50.958Z,17.50
2023-02-16T20:25:19.027Z,25.20
2023-02-16T20:27:47.348Z,21.47
2023-02-16T20:30:19.672Z,20.43
2023-02-16T20:32:49.528Z,18.30
2023-02-16T20:35:17.667Z,17.90
2023-02-16T20:37:45.641Z,22.33
2023-02-16T20:40:14.086Z,19.67
2023-02-16T20:42:42.084Z,21.47
2023-02-16T20:45:10.284Z,22.90
2023-02-16T20:47:38.214Z,18.83
2023-02-16T20:50:08.947Z,19.73
2023-02-16T20:52:37.114Z,20.93
2023-02-16T20:55:05.548Z,19.23
2023-02-16T20:57:34.848Z,19.77
2023-02-16T21:00:03.647Z,17.93
2023-02-16T21:02:31.652Z,20.70
2023-02-16T21:04:59.676Z,20.10
2023-02-16T21:07:29.238Z,18.97
2023-02-16T21:09:57.146Z,17.10
2023-02-16T21:12:25.133Z,21.77
2023-02-16T21:14:53.109Z,20.20
2023-02-16T21:17:22.505Z,20.63
2023-02-16T21:19:50.744Z,22.03
2023-02-16T21:22:18.782Z,24.40
2023-02-16T21:24:48.385Z,25.30
2023-02-16T21:27:16.388Z,23.90
2023-02-16T21:29:44.633Z,23.60
2023-02-16T21:32:13.021Z,24.17
2023-02-16T21:34:41.133Z,28.20
2023-02-16T21:37:09.204Z,23.33
2023-02-16T21:39:54.588Z,23.80
2023-02-16T21:42:23.988Z,23.67
2023-02-16T21:45:11.957Z,25.13
2023-02-16T21:47:58.027Z,24.47
2023-02-16T21:50:26.385Z,23.27
2023-02-16T21:52:54.360Z,25.77
2023-02-16T21:55:40.170Z,23.93
2023-02-16T21:58:10.806Z,24.10
2023-02-16T22:00:39.422Z,25.37
2023-02-16T22:03:08.514Z,26.47
2023-02-16T22:05:37.389Z,31.40
2023-02-16T22:08:06.671Z,25.10
2023-02-16T22:10:36.257Z,26.20
2023-02-16T22:13:05.158Z,24.67
2023-02-16T22:15:36.713Z,25.53
2023-02-16T22:18:05.151Z,26.13
2023-02-16T22:20:33.372Z,30.30
2023-02-16T22:23:01.725Z,26.33
2023-02-16T22:25:29.687Z,23.60
2023-02-16T22:27:57.714Z,29.87
2023-02-16T22:30:25.797Z,24.77
2023-02-16T22:32:55.373Z,23.60
2023-02-16T22:35:23.902Z,28.30
2023-02-16T22:37:51.930Z,23.40
2023-02-16T22:40:20.122Z,29.03
2023-02-16T22:42:48.127Z,27.43
2023-02-16T22:45:16.116Z,27.10
2023-02-16T22:47:44.051Z,25.67
2023-02-16T22:50:13.531Z,26.90
2023-02-16T22:52:41.560Z,26.17
2023-02-16T22:55:10.360Z,26.60
2023-02-16T22:57:38.548Z,29.93
2023-02-16T23:00:09.144Z,26.23
2023-02-16T23:02:37.813Z,27.03
2023-02-16T23:05:06.834Z,25.07
2023-02-16T23:07:36.752Z,24.63
2023-02-16T23:10:05.396Z,24.73
2023-02-16T23:12:33.890Z,22.93
2023-02-16T23:15:01.881Z,26.23
2023-02-16T23:17:29.786Z,26.83
2023-02-16T23:19:57.811Z,23.53
2023-02-16T23:22:25.661Z,25.83
2023-02-16T23:25:09.013Z,22.43
2023-02-16T23:27:37.065Z,23.63
2023-02-16T23:30:06.756Z,28.63
2023-02-16T23:32:34.712Z,26.43
2023-02-16T23:35:03.316Z,20.10
2023-02-16T23:37:32.468Z,25.37
2023-02-16T23:40:02.160Z,21.70
2023-02-16T23:42:30.185Z,22.40
2023-02-16T23:44:58.228Z,21.93
2023-02-16T23:47:26.434Z,20.73
2023-02-16T23:49:54.431Z,22.97
2023-02-16T23:52:22.563Z,19.90
2023-02-16T23:54:50.524Z,18.90
2023-02-16T23:57:19.885Z,24.60
2023-02-16T23:59:48.033Z,21.93
